Time;durP1;ratioP1;P1;durP2;ratioP2;P2;SDS_P1;SDS_P2;PMS_P1;PMS_P2;Temp;Humidity;BMP_temperature;BMP_pressure;BME280_temperature;BME280_humidity;BME280_pressure;Samples;Min_cycle;Max_cycle;Signal;HPM_P1;HPM_P2
2022/01/29 00:01:23;;;;;;;;;;;9.40;87.10;;;;;;5050620;28;19932;-74
2022/01/29 00:03:51;;;;;;;;;;;9.50;87.10;;;;;;5051270;28;19932;-73
2022/01/29 00:06:18;;;;;;;;;;;9.40;87.10;;;;;;5061557;28;19925;-73
2022/01/29 00:08:45;;;;;;;;;;;9.50;87.10;;;;;;5050593;28;19940;-73
2022/01/29 00:11:15;;;;;;;;;;;9.50;87.10;;;;;;5052050;28;19925;-72
2022/01/29 00:13:43;;;;;;;;;;;9.50;87.10;;;;;;5051723;28;19925;-73
2022/01/29 00:16:10;;;;;;;;;;;9.50;87.10;;;;;;5050569;28;20317;-73
2022/01/29 00:18:38;;;;;;;;;;;9.50;87.20;;;;;;5051916;28;19925;-73
2022/01/29 00:21:05;;;;;;;;;;;9.50;87.20;;;;;;5065645;28;19925;-73
2022/01/29 00:23:32;;;;;;;;;;;9.50;87.20;;;;;;5055546;28;19925;-73
2022/01/29 00:26:00;;;;;;;;;;;9.50;87.20;;;;;;5055916;28;19951;-73
2022/01/29 00:28:28;;;;;;;;;;;9.60;87.20;;;;;;5054404;28;20404;-73
2022/01/29 00:30:56;;;;;;;;;;;9.60;87.20;;;;;;5055169;28;19925;-72
2022/01/29 00:33:24;;;;;;;;;;;9.50;87.20;;;;;;5065038;28;19925;-72
2022/01/29 00:35:51;;;;;;;;;;;9.50;87.20;;;;;;5055629;28;19925;-73
2022/01/29 00:38:19;;;;;;;;;;;9.60;87.20;;;;;;5054528;28;19931;-73
2022/01/29 00:40:46;;;;;;;;;;;9.60;87.20;;;;;;5037377;28;19925;-73
2022/01/29 00:43:14;;;;;;;;;;;9.60;87.20;;;;;;5055343;28;19925;-73
2022/01/29 00:45:41;;;;;;;;;;;9.60;87.20;;;;;;5062059;28;20378;-72
2022/01/29 00:48:09;;;;;;;;;;;9.60;87.20;;;;;;5057111;28;19924;-72
2022/01/29 00:50:36;;;;;;;;;;;9.60;87.20;;;;;;5055739;28;19924;-72
2022/01/29 00:53:03;;;;;;;;;;;9.70;87.20;;;;;;5054769;28;19932;-73
2022/01/29 00:55:31;;;;;;;;;;;9.70;87.20;;;;;;5054968;28;19929;-72
2022/01/29 00:57:58;;;;;;;;;;;9.60;87.30;;;;;;5054528;28;19925;-72
2022/01/29 01:00:26;;;;;;;;;;;9.60;87.30;;;;;;5055358;28;19931;-73
2022/01/29 01:02:53;;;;;;;;;;;9.70;87.40;;;;;;5054975;28;19925;-73
2022/01/29 01:05:21;;;;;;;;;;;9.60;87.50;;;;;;5037026;28;19929;-73
2022/01/29 01:07:48;;;;;;;;;;;9.60;87.60;;;;;;5053003;28;19925;-73
2022/01/29 01:10:16;;;;;;;;;;;9.60;87.70;;;;;;5055320;28;20322;-73
2022/01/29 01:12:43;;;;;;;;;;;9.50;87.80;;;;;;5054607;28;19929;-73
2022/01/29 01:15:11;;;;;;;;;;;9.40;87.90;;;;;;5055208;28;19995;-73
2022/01/29 01:17:38;;;;;;;;;;;9.40;88.00;;;;;;5052197;28;19925;-73
2022/01/29 01:20:07;;;;;;;;;;;9.40;88.20;;;;;;5054278;28;20297;-72
2022/01/29 01:22:34;;;;;;;;;;;9.40;88.20;;;;;;5054772;28;19929;-72
2022/01/29 01:25:02;;;;;;;;;;;9.40;88.20;;;;;;5055871;28;19925;-72
2022/01/29 01:27:29;;;;;;;;;;;9.40;88.20;;;;;;5054161;28;19943;-72
2022/01/29 01:29:56;;;;;;;;;;;9.40;88.30;;;;;;5053302;28;19925;-73
2022/01/29 01:32:24;;;;;;;;;;;9.40;88.20;;;;;;5052123;28;19931;-72
2022/01/29 01:34:54;;;;;;;;;;;9.50;88.10;;;;;;5052911;28;19936;-72
2022/01/29 01:37:35;;;;;;;;;;;9.40;88.00;;;;;;5053971;28;19925;-73
2022/01/29 01:40:03;;;;;;;;;;;9.40;87.90;;;;;;5053261;28;19924;-73
2022/01/29 01:42:31;;;;;;;;;;;9.50;87.70;;;;;;5052787;28;19940;-73
2022/01/29 01:45:04;;;;;;;;;;;9.60;87.30;;;;;;5054217;28;19925;-72
2022/01/29 01:47:31;;;;;;;;;;;9.70;87.00;;;;;;5054024;28;19928;-72
2022/01/29 01:49:58;;;;;;;;;;;9.70;86.80;;;;;;5053139;28;20236;-72
2022/01/29 01:52:27;;;;;;;;;;;9.70;86.70;;;;;;5035791;28;19933;-73
2022/01/29 01:54:55;;;;;;;;;;;9.70;86.60;;;;;;5040483;28;19925;-72
2022/01/29 01:57:22;;;;;;;;;;;9.60;86.60;;;;;;5052561;28;19940;-72
2022/01/29 01:59:50;;;;;;;;;;;9.60;86.70;;;;;;5053134;28;19931;-72
2022/01/29 02:02:18;;;;;;;;;;;9.60;86.60;;;;;;5051582;28;19925;-71
2022/01/29 02:04:45;;;;;;;;;;;9.60;86.60;;;;;;5053415;28;19948;-72
2022/01/29 02:07:13;;;;;;;;;;;9.60;86.40;;;;;;5058267;28;19932;-72
2022/01/29 02:09:40;;;;;;;;;;;9.60;86.30;;;;;;5053068;28;19928;-72
2022/01/29 02:12:10;;;;;;;;;;;9.60;86.10;;;;;;5052388;28;19932;-73
2022/01/29 02:14:38;;;;;;;;;;;9.70;85.70;;;;;;5053377;28;19931;-73
2022/01/29 02:17:09;;;;;;;;;;;9.80;85.30;;;;;;5052139;28;19932;-72
2022/01/29 02:19:37;;;;;;;;;;;9.80;85.00;;;;;;5054284;28;19932;-73
2022/01/29 02:22:04;;;;;;;;;;;9.80;84.70;;;;;;5072130;28;19924;-73
2022/01/29 02:24:32;;;;;;;;;;;9.90;84.50;;;;;;5073023;28;19943;-73
2022/01/29 02:26:59;;;;;;;;;;;9.90;84.30;;;;;;5072646;28;20523;-73
2022/01/29 02:29:27;;;;;;;;;;;10.00;84.00;;;;;;5071939;28;19924;-73
2022/01/29 02:31:55;;;;;;;;;;;10.10;83.70;;;;;;5071107;28;19936;-73
2022/01/29 02:34:23;;;;;;;;;;;10.10;83.50;;;;;;5071595;28;19924;-73
2022/01/29 02:36:51;;;;;;;;;;;10.20;83.10;;;;;;5073017;28;19931;-73
2022/01/29 02:39:20;;;;;;;;;;;10.30;82.80;;;;;;5059172;28;19925;-73
2022/01/29 02:41:48;;;;;;;;;;;10.30;82.60;;;;;;5052635;28;19947;-73
2022/01/29 02:44:19;;;;;;;;;;;10.30;82.20;;;;;;5050508;28;19943;-72
2022/01/29 02:49:19;;;;;;;;;;;10.40;81.90;;;;;;5051483;28;20281;-73
2022/01/29 02:51:48;;;;;;;;;;;10.50;81.60;;;;;;5051244;28;19932;-73
2022/01/29 02:54:16;;;;;;;;;;;10.50;81.40;;;;;;5034753;28;19925;-73
2022/01/29 02:56:44;;;;;;;;;;;10.50;81.40;;;;;;5051507;28;19928;-73
2022/01/29 02:59:11;;;;;;;;;;;10.60;81.30;;;;;;5051195;28;19951;-73
2022/01/29 03:01:39;;;;;;;;;;;10.50;81.30;;;;;;5052077;28;19925;-74
2022/01/29 03:04:07;;;;;;;;;;;10.50;81.10;;;;;;5051280;28;19925;-73
2022/01/29 03:06:35;;;;;;;;;;;10.40;81.20;;;;;;5052559;28;19935;-73
2022/01/29 03:09:03;;;;;;;;;;;10.40;81.20;;;;;;5052419;28;19925;-73
2022/01/29 03:11:30;;;;;;;;;;;10.40;81.30;;;;;;5052002;28;20397;-73
2022/01/29 03:13:58;;;;;;;;;;;10.30;81.30;;;;;;5052748;28;19925;-73
2022/01/29 03:16:25;;;;;;;;;;;10.30;81.40;;;;;;5034407;28;19925;-73
2022/01/29 03:18:53;;;;;;;;;;;10.30;81.50;;;;;;5039645;28;19932;-73
2022/01/29 03:21:20;;;;;;;;;;;10.30;81.60;;;;;;5048874;28;19932;-73
2022/01/29 03:23:48;;;;;;;;;;;10.20;81.60;;;;;;5056398;28;19924;-72
2022/01/29 03:26:15;;;;;;;;;;;10.20;81.60;;;;;;5050348;28;19925;-73
2022/01/29 03:28:42;;;;;;;;;;;10.20;81.50;;;;;;5038689;28;20404;-72
2022/01/29 03:31:10;;;;;;;;;;;10.20;81.50;;;;;;5052233;28;19931;-72
2022/01/29 03:33:38;;;;;;;;;;;10.20;81.60;;;;;;5052167;28;19925;-72
2022/01/29 03:36:05;;;;;;;;;;;10.10;81.60;;;;;;5052385;28;19925;-72
2022/01/29 03:38:33;;;;;;;;;;;10.10;81.80;;;;;;5058037;28;19925;-72
2022/01/29 03:41:01;;;;;;;;;;;10.00;81.90;;;;;;5051053;28;19932;-72
2022/01/29 03:43:33;;;;;;;;;;;9.90;82.10;;;;;;5050977;28;19924;-72
2022/01/29 03:46:00;;;;;;;;;;;9.90;82.30;;;;;;5050563;28;19992;-72
2022/01/29 03:48:28;;;;;;;;;;;9.80;82.40;;;;;;5052019;28;19925;-72
2022/01/29 03:50:55;;;;;;;;;;;9.80;82.40;;;;;;5052343;28;19992;-72
2022/01/29 03:53:23;;;;;;;;;;;9.80;82.60;;;;;;5052165;28;19932;-72
2022/01/29 03:55:50;;;;;;;;;;;9.80;82.60;;;;;;5054611;28;20313;-71
2022/01/29 03:58:17;;;;;;;;;;;9.70;82.70;;;;;;5055726;28;19925;-71
2022/01/29 04:00:45;;;;;;;;;;;9.80;82.80;;;;;;5053744;28;19924;-73
2022/01/29 04:03:12;;;;;;;;;;;9.80;82.80;;;;;;5055825;28;19929;-73
2022/01/29 04:05:40;;;;;;;;;;;9.80;82.70;;;;;;5056516;28;19928;-73
2022/01/29 04:08:14;;;;;;;;;;;9.80;82.60;;;;;;5054758;28;20171;-73
2022/01/29 04:10:42;;;;;;;;;;;9.90;82.40;;;;;;5055616;28;19924;-73
2022/01/29 04:13:11;;;;;;;;;;;10.00;82.20;;;;;;5054592;28;20405;-73
2022/01/29 04:15:39;;;;;;;;;;;10.00;82.10;;;;;;5054138;28;20329;-73
2022/01/29 04:18:06;;;;;;;;;;;10.00;82.10;;;;;;5059232;28;19924;-72
2022/01/29 04:20:34;;;;;;;;;;;10.10;82.10;;;;;;5057461;28;19931;-73
2022/01/29 04:23:01;;;;;;;;;;;10.00;82.30;;;;;;5055444;28;19996;-73
2022/01/29 04:25:29;;;;;;;;;;;10.00;82.50;;;;;;5055175;28;19925;-73
2022/01/29 04:27:56;;;;;;;;;;;9.90;82.60;;;;;;5054270;28;20286;-72
2022/01/29 04:35:19;;;;;;;;;;;9.80;83.10;;;;;;5055452;28;19932;-73
2022/01/29 04:37:46;;;;;;;;;;;9.80;83.20;;;;;;5053303;28;19932;-72
2022/01/29 04:40:14;;;;;;;;;;;9.80;83.40;;;;;;5055194;28;19924;-72
2022/01/29 04:42:41;;;;;;;;;;;9.70;83.50;;;;;;5055292;28;19924;-72
2022/01/29 04:45:09;;;;;;;;;;;9.70;83.50;;;;;;5054899;28;20303;-73
2022/01/29 04:47:36;;;;;;;;;;;9.70;83.60;;;;;;5054993;28;19950;-72
2022/01/29 04:50:04;;;;;;;;;;;9.70;83.70;;;;;;5037312;28;19928;-73
2022/01/29 04:52:31;;;;;;;;;;;9.70;83.80;;;;;;5054046;28;19948;-73
2022/01/29 04:54:59;;;;;;;;;;;9.60;83.90;;;;;;5063661;28;20292;-73
2022/01/29 04:57:26;;;;;;;;;;;9.60;84.00;;;;;;5068661;28;19932;-73
2022/01/29 04:59:53;;;;;;;;;;;9.60;84.00;;;;;;5054355;28;19928;-74
2022/01/29 05:02:21;;;;;;;;;;;9.60;84.00;;;;;;5053736;28;19932;-73
2022/01/29 05:04:48;;;;;;;;;;;9.60;83.90;;;;;;5054484;28;19924;-73
2022/01/29 05:07:16;;;;;;;;;;;9.60;83.90;;;;;;5052472;28;19925;-73
2022/01/29 05:09:43;;;;;;;;;;;9.60;84.00;;;;;;5054514;28;19929;-73
2022/01/29 05:12:13;;;;;;;;;;;9.50;84.00;;;;;;5054394;28;19925;-73
2022/01/29 05:15:08;;;;;;;;;;;9.60;84.00;;;;;;5053312;28;19925;-73
2022/01/29 05:28:40;;;;;;;;;;;9.60;83.50;;;;;;5053877;28;19925;-72
2022/01/29 05:31:07;;;;;;;;;;;9.60;83.60;;;;;;5054073;28;19936;-72
2022/01/29 05:33:34;;;;;;;;;;;9.60;83.60;;;;;;5054261;28;20301;-72
2022/01/29 05:36:02;;;;;;;;;;;9.50;83.80;;;;;;5053185;28;19924;-74
2022/01/29 05:38:29;;;;;;;;;;;9.50;83.70;;;;;;5053908;28;20314;-72
2022/01/29 05:40:57;;;;;;;;;;;9.50;83.60;;;;;;5054422;28;19925;-73
2022/01/29 05:43:24;;;;;;;;;;;9.50;83.60;;;;;;5053387;28;19929;-73
2022/01/29 05:45:51;;;;;;;;;;;9.40;83.60;;;;;;5054226;28;19924;-72
2022/01/29 05:48:19;;;;;;;;;;;9.50;83.70;;;;;;5052658;28;19925;-72
2022/01/29 05:50:46;;;;;;;;;;;9.50;83.60;;;;;;5052809;28;20400;-72
2022/01/29 05:53:14;;;;;;;;;;;9.50;83.50;;;;;;5053816;28;20378;-73
2022/01/29 05:55:41;;;;;;;;;;;9.50;83.50;;;;;;5033962;28;19933;-73
2022/01/29 05:58:09;;;;;;;;;;;9.60;83.30;;;;;;5050832;28;20377;-73
2022/01/29 06:00:36;;;;;;;;;;;9.70;83.20;;;;;;5051484;28;19939;-73
2022/01/29 06:03:08;;;;;;;;;;;9.70;82.80;;;;;;5052719;28;19928;-73
2022/01/29 06:05:36;;;;;;;;;;;9.80;82.30;;;;;;5053544;28;19933;-73
2022/01/29 06:08:03;;;;;;;;;;;10.00;81.90;;;;;;5053632;28;19932;-73
2022/01/29 06:10:31;;;;;;;;;;;10.10;81.70;;;;;;5053448;28;20267;-73
2022/01/29 06:13:01;;;;;;;;;;;10.10;81.50;;;;;;5054299;28;19925;-73
2022/01/29 06:15:29;;;;;;;;;;;10.20;81.40;;;;;;5053386;28;19932;-73
2022/01/29 06:17:58;;;;;;;;;;;10.10;81.30;;;;;;5053373;28;19940;-72
2022/01/29 06:20:26;;;;;;;;;;;10.10;81.30;;;;;;5052421;28;19925;-73
2022/01/29 06:22:53;;;;;;;;;;;10.10;81.50;;;;;;5053144;28;20301;-73
2022/01/29 06:25:21;;;;;;;;;;;10.10;81.50;;;;;;5051541;28;20417;-73
2022/01/29 06:27:48;;;;;;;;;;;10.00;81.50;;;;;;5055026;28;19932;-72
2022/01/29 06:30:15;;;;;;;;;;;10.00;81.80;;;;;;5052854;28;20314;-72
2022/01/29 06:32:43;;;;;;;;;;;10.00;81.80;;;;;;5051475;28;19932;-72
2022/01/29 06:35:11;;;;;;;;;;;10.00;82.00;;;;;;5051928;28;19932;-74
2022/01/29 06:37:38;;;;;;;;;;;9.90;82.10;;;;;;5052634;28;19924;-73
2022/01/29 06:40:06;;;;;;;;;;;10.00;82.10;;;;;;5052730;28;19925;-73
2022/01/29 06:42:34;;;;;;;;;;;10.00;82.20;;;;;;5053050;28;19929;-73
2022/01/29 06:45:02;;;;;;;;;;;10.00;82.30;;;;;;5053312;28;19924;-73
2022/01/29 06:47:30;;;;;;;;;;;9.90;82.50;;;;;;5052408;28;20034;-73
2022/01/29 06:49:57;;;;;;;;;;;10.00;82.60;;;;;;5052554;28;19925;-72
2022/01/29 06:52:25;;;;;;;;;;;10.00;82.70;;;;;;5061213;28;19929;-72
2022/01/29 06:54:52;;;;;;;;;;;10.00;82.70;;;;;;5052406;28;19931;-73
2022/01/29 06:57:19;;;;;;;;;;;10.00;82.90;;;;;;5052139;28;19925;-73
2022/01/29 06:59:47;;;;;;;;;;;10.00;83.10;;;;;;5031395;28;19925;-73
2022/01/29 07:02:14;;;;;;;;;;;10.10;83.10;;;;;;5050709;28;19936;-73
2022/01/29 07:04:42;;;;;;;;;;;10.10;83.10;;;;;;5052860;28;19925;-73
2022/01/29 07:07:09;;;;;;;;;;;10.20;83.20;;;;;;5052682;28;19932;-73
2022/01/29 07:09:37;;;;;;;;;;;10.30;82.90;;;;;;5052764;28;19924;-73
2022/01/29 07:12:10;;;;;;;;;;;10.40;82.70;;;;;;5051975;28;19932;-73
2022/01/29 07:14:39;;;;;;;;;;;10.50;82.60;;;;;;5052523;28;19925;-73
2022/01/29 07:17:08;;;;;;;;;;;10.60;82.30;;;;;;5052486;28;19925;-73
2022/01/29 07:19:36;;;;;;;;;;;10.70;82.30;;;;;;5033869;28;19929;-73
2022/01/29 07:22:04;;;;;;;;;;;10.60;82.30;;;;;;5050730;28;19929;-74
2022/01/29 07:24:32;;;;;;;;;;;10.60;82.40;;;;;;5050990;28;19925;-73
2022/01/29 07:26:59;;;;;;;;;;;10.60;82.60;;;;;;5034301;28;19932;-74
2022/01/29 07:29:27;;;;;;;;;;;10.50;82.80;;;;;;5051455;28;19932;-72
2022/01/29 07:31:56;;;;;;;;;;;10.40;83.00;;;;;;5056134;28;19936;-73
2022/01/29 07:34:23;;;;;;;;;;;10.40;83.20;;;;;;5056498;28;20239;-73
2022/01/29 07:36:51;;;;;;;;;;;10.40;83.40;;;;;;5057670;28;19925;-72
2022/01/29 07:39:19;;;;;;;;;;;10.30;83.70;;;;;;5054468;28;20413;-72
2022/01/29 07:41:47;;;;;;;;;;;10.30;83.80;;;;;;5055981;28;19928;-72
2022/01/29 07:44:15;;;;;;;;;;;10.30;84.00;;;;;;5055359;28;19943;-73
2022/01/29 07:46:43;;;;;;;;;;;10.30;84.00;;;;;;5049235;28;19925;-73
2022/01/29 07:49:10;;;;;;;;;;;10.30;83.90;;;;;;5055848;28;19925;-73
2022/01/29 07:51:38;;;;;;;;;;;10.30;84.00;;;;;;5055812;28;20079;-74
2022/01/29 07:54:06;;;;;;;;;;;10.20;84.20;;;;;;5054749;28;19975;-74
2022/01/29 07:56:34;;;;;;;;;;;10.20;84.50;;;;;;5054893;28;20415;-74
2022/01/29 07:59:03;;;;;;;;;;;10.10;84.60;;;;;;5056057;28;20354;-74
2022/01/29 08:01:30;;;;;;;;;;;10.10;84.80;;;;;;5063241;28;19924;-73
2022/01/29 08:03:58;;;;;;;;;;;10.10;85.00;;;;;;5066495;28;19924;-73
2022/01/29 08:06:29;;;;;;;;;;;10.00;85.20;;;;;;5072768;28;19932;-73
2022/01/29 08:08:57;;;;;;;;;;;10.00;85.50;;;;;;5070802;28;19932;-73
2022/01/29 08:11:25;;;;;;;;;;;9.90;85.70;;;;;;5071684;28;19929;-73
2022/01/29 08:13:52;;;;;;;;;;;9.90;86.00;;;;;;5054691;28;19925;-73
2022/01/29 08:16:20;;;;;;;;;;;9.80;86.00;;;;;;5075263;28;19948;-73
2022/01/29 08:18:48;;;;;;;;;;;9.80;86.20;;;;;;5072692;28;19925;-73
2022/01/29 08:21:16;;;;;;;;;;;9.80;86.40;;;;;;5074439;28;19928;-73
2022/01/29 08:23:44;;;;;;;;;;;9.80;86.30;;;;;;5068569;28;19925;-73
2022/01/29 08:26:12;;;;;;;;;;;9.80;86.40;;;;;;5084069;28;19932;-73
2022/01/29 08:28:40;;;;;;;;;;;9.80;86.50;;;;;;5070346;28;20381;-74
2022/01/29 08:31:07;;;;;;;;;;;9.80;86.60;;;;;;5070830;28;19924;-73
2022/01/29 08:33:35;;;;;;;;;;;9.90;86.40;;;;;;5075103;28;19928;-73
2022/01/29 08:36:03;;;;;;;;;;;9.90;86.20;;;;;;5073110;28;19931;-73
2022/01/29 08:38:31;;;;;;;;;;;10.00;86.20;;;;;;5074929;28;19925;-73
2022/01/29 08:40:58;;;;;;;;;;;10.00;86.10;;;;;;5070876;28;19924;-73
2022/01/29 08:43:26;;;;;;;;;;;10.00;86.10;;;;;;5071129;28;19925;-73
2022/01/29 08:45:55;;;;;;;;;;;10.00;86.00;;;;;;5074838;28;19931;-73
2022/01/29 08:48:22;;;;;;;;;;;10.00;86.00;;;;;;5071683;28;19931;-73
2022/01/29 08:50:50;;;;;;;;;;;10.10;85.80;;;;;;5073706;28;19931;-74
2022/01/29 08:53:19;;;;;;;;;;;10.10;85.80;;;;;;5073130;28;19933;-73
2022/01/29 08:55:46;;;;;;;;;;;10.20;85.70;;;;;;5070587;28;19924;-73
2022/01/29 08:58:14;;;;;;;;;;;10.20;85.60;;;;;;5069802;28;19932;-74
2022/01/29 09:00:44;;;;;;;;;;;10.30;85.30;;;;;;5071611;28;19932;-73
2022/01/29 09:03:16;;;;;;;;;;;10.30;85.00;;;;;;5037318;28;20325;-73
2022/01/29 09:05:44;;;;;;;;;;;10.50;84.70;;;;;;5048976;28;19932;-73
2022/01/29 09:08:13;;;;;;;;;;;10.60;84.30;;;;;;5053028;28;19932;-73
2022/01/29 09:10:40;;;;;;;;;;;10.70;83.70;;;;;;5058424;28;20289;-72
2022/01/29 09:13:09;;;;;;;;;;;10.80;83.50;;;;;;5055402;28;19924;-73
2022/01/29 09:15:36;;;;;;;;;;;10.90;83.20;;;;;;5054125;28;20329;-74
2022/01/29 09:18:03;;;;;;;;;;;10.90;83.10;;;;;;5054270;28;19925;-72
2022/01/29 09:20:31;;;;;;;;;;;11.00;82.70;;;;;;5053879;28;19925;-73
2022/01/29 09:22:58;;;;;;;;;;;11.10;82.60;;;;;;5053655;28;19932;-73
2022/01/29 09:25:26;;;;;;;;;;;11.20;82.20;;;;;;5052710;28;19943;-77
2022/01/29 09:27:54;;;;;;;;;;;11.30;82.10;;;;;;5054069;28;20306;-73
2022/01/29 09:30:21;;;;;;;;;;;11.30;81.50;;;;;;5051456;28;19931;-71
2022/01/29 09:32:49;;;;;;;;;;;11.40;81.30;;;;;;5068119;28;19924;-72
2022/01/29 09:35:17;;;;;;;;;;;11.40;81.00;;;;;;5072472;28;20381;-73
2022/01/29 09:37:45;;;;;;;;;;;11.50;80.90;;;;;;5074016;28;19943;-73
2022/01/29 09:40:12;;;;;;;;;;;11.50;80.60;;;;;;5072320;28;19948;-72
2022/01/29 09:42:40;;;;;;;;;;;11.60;80.20;;;;;;5076686;28;19925;-72
2022/01/29 09:45:08;;;;;;;;;;;11.60;80.20;;;;;;5078312;28;19931;-71
2022/01/29 09:47:36;;;;;;;;;;;11.70;80.00;;;;;;5073702;28;20045;-72
2022/01/29 09:50:04;;;;;;;;;;;11.70;79.90;;;;;;5074203;28;19924;-72
2022/01/29 09:52:32;;;;;;;;;;;11.80;79.70;;;;;;5055241;28;19924;-72
2022/01/29 09:54:59;;;;;;;;;;;11.80;79.60;;;;;;5073330;28;19931;-72
2022/01/29 09:57:28;;;;;;;;;;;11.80;79.80;;;;;;5073708;28;19924;-71
2022/01/29 09:59:56;;;;;;;;;;;11.80;79.90;;;;;;5065025;28;20306;-72
2022/01/29 10:02:23;;;;;;;;;;;11.80;80.00;;;;;;5053455;28;19947;-72
2022/01/29 10:04:52;;;;;;;;;;;11.90;79.90;;;;;;5053104;28;19925;-72
2022/01/29 10:07:27;;;;;;;;;;;11.90;79.60;;;;;;5052122;28;19924;-76
2022/01/29 10:09:56;;;;;;;;;;;12.00;79.70;;;;;;5043545;28;19925;-72
2022/01/29 10:12:30;;;;;;;;;;;12.00;79.90;;;;;;5053177;28;19924;-72
2022/01/29 10:14:58;;;;;;;;;;;12.00;80.00;;;;;;5051797;28;19924;-72
2022/01/29 10:17:37;;;;;;;;;;;11.90;80.10;;;;;;5053214;28;19925;-72
2022/01/29 10:20:14;;;;;;;;;;;12.00;80.00;;;;;;5053338;28;19931;-71
2022/01/29 10:22:43;;;;;;;;;;;12.00;80.00;;;;;;5052967;28;19932;-71
2022/01/29 10:25:12;;;;;;;;;;;12.10;79.80;;;;;;5052368;28;19932;-73
2022/01/29 10:28:00;;;;;;;;;;;12.10;79.60;;;;;;5051999;28;20194;-73
2022/01/29 10:30:30;;;;;;;;;;;12.10;79.80;;;;;;5052833;28;19928;-71
2022/01/29 10:33:19;;;;;;;;;;;12.20;79.70;;;;;;5052536;28;19932;-72
2022/01/29 10:35:48;;;;;;;;;;;12.20;79.80;;;;;;5052986;28;20309;-72
2022/01/29 10:38:20;;;;;;;;;;;12.20;79.90;;;;;;5056560;28;19931;-71
2022/01/29 10:41:07;;;;;;;;;;;12.10;80.00;;;;;;5054925;28;19925;-72
2022/01/29 10:43:35;;;;;;;;;;;12.00;80.20;;;;;;5072635;28;19973;-72
2022/01/29 10:46:02;;;;;;;;;;;12.00;80.40;;;;;;5072809;28;19924;-72
2022/01/29 10:48:43;;;;;;;;;;;12.00;80.70;;;;;;5066500;28;20294;-72
2022/01/29 10:51:11;;;;;;;;;;;12.00;80.80;;;;;;5052842;28;20329;-72
2022/01/29 10:53:38;;;;;;;;;;;12.00;80.90;;;;;;5051493;28;19925;-72
2022/01/29 10:56:06;;;;;;;;;;;11.90;81.20;;;;;;5052976;28;19925;-70
2022/01/29 10:58:40;;;;;;;;;;;12.00;81.50;;;;;;5052594;28;19925;-71
2022/01/29 11:01:14;;;;;;;;;;;12.10;81.60;;;;;;5051150;28;19924;-71
2022/01/29 11:03:42;;;;;;;;;;;12.20;81.30;;;;;;5059430;28;19924;-71
2022/01/29 11:06:12;;;;;;;;;;;12.20;81.50;;;;;;5072245;28;19924;-71
2022/01/29 11:08:40;;;;;;;;;;;12.10;81.90;;;;;;5071073;28;19924;-71
2022/01/29 11:11:08;;;;;;;;;;;12.10;82.20;;;;;;5072695;28;20381;-71
2022/01/29 11:13:54;;;;;;;;;;;12.20;82.00;;;;;;5071059;28;19924;-71
2022/01/29 11:16:22;;;;;;;;;;;12.30;81.80;;;;;;5072164;28;19924;-71
2022/01/29 11:18:49;;;;;;;;;;;12.20;82.40;;;;;;5070024;28;19924;-72
2022/01/29 11:21:18;;;;;;;;;;;12.10;82.60;;;;;;5031358;28;19932;-72
2022/01/29 11:23:45;;;;;;;;;;;12.10;82.80;;;;;;5031270;28;19925;-71
2022/01/29 11:26:13;;;;;;;;;;;12.10;82.60;;;;;;5031186;28;19932;-71
2022/01/29 11:28:41;;;;;;;;;;;12.10;82.40;;;;;;5031117;28;19932;-72
2022/01/29 11:31:11;;;;;;;;;;;12.10;82.20;;;;;;5032150;28;19933;-70
2022/01/29 11:33:57;;;;;;;;;;;12.20;82.80;;;;;;5047212;28;20317;-71
2022/01/29 11:36:43;;;;;;;;;;;12.20;82.60;;;;;;5032160;28;19925;-72
2022/01/29 11:39:28;;;;;;;;;;;12.30;82.30;;;;;;5032428;28;19925;-72
2022/01/29 11:42:14;;;;;;;;;;;12.30;81.80;;;;;;5032246;28;20252;-71
2022/01/29 11:44:42;;;;;;;;;;;12.50;80.10;;;;;;5030622;28;20409;-75
2022/01/29 11:47:28;;;;;;;;;;;12.70;79.50;;;;;;5031302;28;20276;-74
2022/01/29 11:50:14;;;;;;;;;;;13.00;77.80;;;;;;5034621;28;19925;-74
2022/01/29 11:53:01;;;;;;;;;;;13.20;77.40;;;;;;5075214;28;19924;-72
2022/01/29 11:55:33;;;;;;;;;;;13.50;76.20;;;;;;5072082;28;19998;-71
2022/01/29 11:58:12;;;;;;;;;;;13.50;75.20;;;;;;5070861;28;19925;-73
2022/01/29 12:00:40;;;;;;;;;;;13.40;74.10;;;;;;5072304;28;19925;-72
2022/01/29 12:03:28;;;;;;;;;;;13.00;71.80;;;;;;5072645;28;19932;-71
2022/01/29 12:06:05;;;;;;;;;;;12.40;72.40;;;;;;5072293;28;19925;-72
2022/01/29 12:08:39;;;;;;;;;;;11.90;73.70;;;;;;5060080;28;19924;-71
2022/01/29 12:11:10;;;;;;;;;;;11.70;73.90;;;;;;5052236;28;19947;-71
2022/01/29 12:13:37;;;;;;;;;;;11.40;74.20;;;;;;5051944;28;19929;-72
2022/01/29 12:16:05;;;;;;;;;;;11.30;73.90;;;;;;5052928;28;19925;-72
2022/01/29 12:18:34;;;;;;;;;;;11.20;73.80;;;;;;5054988;28;19924;-72
2022/01/29 12:21:03;;;;;;;;;;;11.00;73.70;;;;;;5055588;28;19925;-73
2022/01/29 12:23:44;;;;;;;;;;;11.00;72.90;;;;;;5064661;28;19931;-71
2022/01/29 12:26:12;;;;;;;;;;;11.00;72.60;;;;;;5050223;28;20418;-72
2022/01/29 12:28:47;;;;;;;;;;;11.00;72.10;;;;;;5035394;28;19948;-72
2022/01/29 12:31:15;;;;;;;;;;;11.00;71.50;;;;;;5035001;28;19925;-71
2022/01/29 12:33:43;;;;;;;;;;;11.00;70.40;;;;;;5033857;28;19932;-72
2022/01/29 12:36:10;;;;;;;;;;;11.00;69.00;;;;;;5035089;28;20298;-72
2022/01/29 12:38:41;;;;;;;;;;;11.00;68.70;;;;;;5051299;28;19929;-71
2022/01/29 12:41:10;;;;;;;;;;;11.30;67.20;;;;;;5073994;28;19954;-71
2022/01/29 12:43:42;;;;;;;;;;;11.70;66.20;;;;;;5074494;28;19928;-72
2022/01/29 12:46:10;;;;;;;;;;;12.10;64.70;;;;;;5074643;28;19925;-72
2022/01/29 12:48:38;;;;;;;;;;;12.40;61.80;;;;;;5074735;28;19932;-72
2022/01/29 12:51:06;;;;;;;;;;;12.80;60.20;;;;;;5074832;28;19924;-73
2022/01/29 12:53:34;;;;;;;;;;;12.90;58.00;;;;;;5074148;28;19924;-72
2022/01/29 12:56:11;;;;;;;;;;;13.00;56.70;;;;;;5073833;28;19924;-71
2022/01/29 12:58:41;;;;;;;;;;;13.10;55.40;;;;;;5074737;28;19924;-73
2022/01/29 13:01:09;;;;;;;;;;;13.20;54.70;;;;;;5074483;28;19932;-72
2022/01/29 13:03:38;;;;;;;;;;;13.20;55.80;;;;;;5074695;28;19935;-74
2022/01/29 13:06:10;;;;;;;;;;;13.30;54.90;;;;;;5056541;28;20313;-74
2022/01/29 13:08:37;;;;;;;;;;;13.50;54.10;;;;;;5067744;28;20309;-75
2022/01/29 13:11:20;;;;;;;;;;;13.50;52.80;;;;;;5054423;28;19932;-73
2022/01/29 13:13:54;;;;;;;;;;;13.50;53.10;;;;;;5054568;28;19925;-73
2022/01/29 13:16:28;;;;;;;;;;;13.50;52.50;;;;;;5053170;28;19950;-77
2022/01/29 13:18:56;;;;;;;;;;;13.50;52.90;;;;;;5036671;28;19931;-73
2022/01/29 13:21:26;;;;;;;;;;;13.50;53.10;;;;;;5054336;28;19925;-72
2022/01/29 13:23:56;;;;;;;;;;;13.60;53.20;;;;;;5053378;28;19925;-74
2022/01/29 13:26:29;;;;;;;;;;;13.70;52.70;;;;;;5074094;28;19925;-72
2022/01/29 13:28:59;;;;;;;;;;;13.70;52.00;;;;;;5073348;28;19924;-74
2022/01/29 13:31:27;;;;;;;;;;;13.70;51.30;;;;;;5073907;28;19936;-73
2022/01/29 13:33:57;;;;;;;;;;;13.60;50.70;;;;;;5072066;28;19925;-73
2022/01/29 13:36:31;;;;;;;;;;;13.30;51.60;;;;;;5058347;28;19943;-83
2022/01/29 13:39:09;;;;;;;;;;;13.20;52.40;;;;;;5052743;28;20262;-72
2022/01/29 13:41:36;;;;;;;;;;;13.10;52.90;;;;;;5052522;28;19935;-69
2022/01/29 13:44:08;;;;;;;;;;;13.00;52.50;;;;;;5052618;28;19924;-69
2022/01/29 13:46:36;;;;;;;;;;;12.80;52.70;;;;;;5051117;28;20390;-70
2022/01/29 13:49:07;;;;;;;;;;;13.00;53.50;;;;;;5050058;28;19929;-68
2022/01/29 13:51:41;;;;;;;;;;;13.10;53.10;;;;;;5052145;28;19925;-69
2022/01/29 13:54:10;;;;;;;;;;;13.10;54.00;;;;;;5054605;28;19925;-70
2022/01/29 13:56:49;;;;;;;;;;;12.80;54.50;;;;;;5051931;28;19936;-69
2022/01/29 13:59:18;;;;;;;;;;;12.40;55.30;;;;;;5053044;28;19932;-68
2022/01/29 14:01:50;;;;;;;;;;;12.00;56.40;;;;;;5053592;28;19936;-69
2022/01/29 14:04:21;;;;;;;;;;;11.70;57.70;;;;;;5054982;28;20418;-69
2022/01/29 14:06:56;;;;;;;;;;;11.30;59.00;;;;;;5066364;28;19924;-69
2022/01/29 14:09:30;;;;;;;;;;;11.00;60.10;;;;;;5062598;28;20302;-69
2022/01/29 14:12:04;;;;;;;;;;;10.80;59.70;;;;;;5051184;28;20376;-68
2022/01/29 14:14:33;;;;;;;;;;;10.70;60.60;;;;;;5052621;28;19924;-69
2022/01/29 14:17:02;;;;;;;;;;;10.70;61.30;;;;;;5063264;28;19931;-69
2022/01/29 14:19:31;;;;;;;;;;;10.70;61.40;;;;;;5072665;28;19932;-69
2022/01/29 14:21:59;;;;;;;;;;;10.70;61.70;;;;;;5071775;28;19947;-69
2022/01/29 14:24:27;;;;;;;;;;;10.80;61.40;;;;;;5072773;28;19928;-68
2022/01/29 14:26:55;;;;;;;;;;;11.00;61.20;;;;;;5054613;28;19925;-69
2022/01/29 14:29:24;;;;;;;;;;;11.10;60.50;;;;;;5051289;28;19932;-72
2022/01/29 14:32:12;;;;;;;;;;;11.00;60.80;;;;;;5054254;28;19925;-69
2022/01/29 14:34:40;;;;;;;;;;;10.90;60.70;;;;;;5051205;28;19939;-70
2022/01/29 14:37:08;;;;;;;;;;;10.80;60.60;;;;;;5051461;28;19931;-69
2022/01/29 14:39:41;;;;;;;;;;;10.80;60.60;;;;;;5032762;28;20294;-69
2022/01/29 14:42:09;;;;;;;;;;;10.70;61.50;;;;;;5049660;28;19929;-70
2022/01/29 14:44:39;;;;;;;;;;;10.60;62.40;;;;;;5051763;28;19925;-70
2022/01/29 14:47:07;;;;;;;;;;;10.50;61.90;;;;;;5052331;28;19924;-69
2022/01/29 14:49:35;;;;;;;;;;;10.50;62.30;;;;;;5052471;28;20302;-68
2022/01/29 14:52:04;;;;;;;;;;;10.40;63.20;;;;;;5051922;28;19932;-68